Ada, Ohio
Current Conditions -  °F | °C
As of 2:53 AM on Thursday 29 Jan 2015 (Local Time) from KAOH Reporting Station
Broken Clouds Broken Clouds  
Wind Chill: 18°   Ceiling: 9000
Heat Index: 30°   Visibility: 10mi
Dew Point: 20°   Wind: 20mph
Humidity: 66%   Direction: 170°S
Pressure: 29.98"   Gusts: NA
Location:  40.78°N, 83.82°W
Report Text: KAOH 290753Z AUTO 17017KT 10SM BKN090 M01/M07 A2998 RMK AO2 PK WND 16026/0740 SLP163 T10111067
Loading
Personal Weather Stations






























Interactive Weather Map New forecast layout! Learn more

10-Day Weather Forecast

Advertisements
Track Severe Weather on mobile